sensor_id;sensor_type;location;lat;lon;timestamp;P1;durP1;ratioP1;P2;durP2;ratioP2
17648;SDS011;8943;51.110;-4.158;2023-04-03T00:02:29;5.83;;;3.43;;
17648;SDS011;8943;51.110;-4.158;2023-04-03T00:04:58;6.17;;;3.57;;
17648;SDS011;8943;51.110;-4.158;2023-04-03T00:07:26;7.43;;;3.70;;
17648;SDS011;8943;51.110;-4.158;2023-04-03T00:09:55;6.63;;;3.90;;
17648;SDS011;8943;51.110;-4.158;2023-04-03T00:12:23;7.27;;;3.73;;
17648;SDS011;8943;51.110;-4.158;2023-04-03T00:14:54;8.13;;;3.93;;
17648;SDS011;8943;51.110;-4.158;2023-04-03T00:17:23;5.70;;;3.70;;
17648;SDS011;8943;51.110;-4.158;2023-04-03T00:19:53;8.60;;;4.47;;
17648;SDS011;8943;51.110;-4.158;2023-04-03T00:22:22;6.60;;;4.23;;
17648;SDS011;8943;51.110;-4.158;2023-04-03T00:24:53;5.37;;;4.00;;
17648;SDS011;8943;51.110;-4.158;2023-04-03T00:27:24;13.33;;;4.40;;
17648;SDS011;8943;51.110;-4.158;2023-04-03T00:29:54;6.27;;;3.87;;
17648;SDS011;8943;51.110;-4.158;2023-04-03T00:32:23;5.93;;;3.97;;
17648;SDS011;8943;51.110;-4.158;2023-04-03T00:34:56;7.63;;;3.80;;
17648;SDS011;8943;51.110;-4.158;2023-04-03T00:37:25;8.33;;;4.57;;
17648;SDS011;8943;51.110;-4.158;2023-04-03T00:39:54;8.40;;;3.70;;
17648;SDS011;8943;51.110;-4.158;2023-04-03T00:42:25;7.57;;;3.63;;
17648;SDS011;8943;51.110;-4.158;2023-04-03T00:48:00;9.17;;;4.27;;
17648;SDS011;8943;51.110;-4.158;2023-04-03T00:50:32;10.63;;;5.13;;
17648;SDS011;8943;51.110;-4.158;2023-04-03T00:53:05;9.47;;;4.10;;
17648;SDS011;8943;51.110;-4.158;2023-04-03T00:55:37;7.40;;;4.00;;
17648;SDS011;8943;51.110;-4.158;2023-04-03T00:58:07;6.43;;;4.27;;
17648;SDS011;8943;51.110;-4.158;2023-04-03T01:00:37;11.00;;;4.60;;
17648;SDS011;8943;51.110;-4.158;2023-04-03T01:03:08;7.80;;;4.80;;
17648;SDS011;8943;51.110;-4.158;2023-04-03T01:05:37;8.70;;;4.33;;
17648;SDS011;8943;51.110;-4.158;2023-04-03T01:08:05;7.07;;;3.93;;
17648;SDS011;8943;51.110;-4.158;2023-04-03T01:10:34;5.60;;;3.83;;
17648;SDS011;8943;51.110;-4.158;2023-04-03T01:13:02;9.07;;;4.43;;
17648;SDS011;8943;51.110;-4.158;2023-04-03T01:15:48;8.80;;;4.53;;
17648;SDS011;8943;51.110;-4.158;2023-04-03T01:18:17;6.63;;;3.93;;
17648;SDS011;8943;51.110;-4.158;2023-04-03T01:20:50;8.43;;;3.80;;
17648;SDS011;8943;51.110;-4.158;2023-04-03T01:23:48;8.50;;;4.17;;
17648;SDS011;8943;51.110;-4.158;2023-04-03T01:26:40;8.53;;;3.77;;
17648;SDS011;8943;51.110;-4.158;2023-04-03T01:29:09;8.07;;;3.67;;
17648;SDS011;8943;51.110;-4.158;2023-04-03T01:34:54;6.73;;;3.63;;
17648;SDS011;8943;51.110;-4.158;2023-04-03T01:37:51;9.00;;;3.77;;
17648;SDS011;8943;51.110;-4.158;2023-04-03T01:40:27;7.93;;;3.20;;
17648;SDS011;8943;51.110;-4.158;2023-04-03T01:43:12;6.53;;;3.20;;
17648;SDS011;8943;51.110;-4.158;2023-04-03T01:45:58;7.50;;;3.43;;
17648;SDS011;8943;51.110;-4.158;2023-04-03T01:48:44;6.97;;;3.43;;
17648;SDS011;8943;51.110;-4.158;2023-04-03T01:51:31;9.93;;;3.53;;
17648;SDS011;8943;51.110;-4.158;2023-04-03T01:54:02;7.00;;;3.17;;
17648;SDS011;8943;51.110;-4.158;2023-04-03T01:56:37;5.60;;;2.93;;
17648;SDS011;8943;51.110;-4.158;2023-04-03T01:59:09;6.07;;;3.27;;
17648;SDS011;8943;51.110;-4.158;2023-04-03T02:01:56;10.13;;;3.30;;
17648;SDS011;8943;51.110;-4.158;2023-04-03T02:07:52;8.33;;;3.30;;
17648;SDS011;8943;51.110;-4.158;2023-04-03T02:10:40;9.57;;;3.00;;
17648;SDS011;8943;51.110;-4.158;2023-04-03T02:13:10;4.70;;;2.80;;
17648;SDS011;8943;51.110;-4.158;2023-04-03T02:15:40;4.97;;;2.80;;
17648;SDS011;8943;51.110;-4.158;2023-04-03T02:18:12;5.67;;;2.70;;
17648;SDS011;8943;51.110;-4.158;2023-04-03T02:20:44;6.70;;;2.97;;
17648;SDS011;8943;51.110;-4.158;2023-04-03T02:23:23;6.43;;;3.03;;
17648;SDS011;8943;51.110;-4.158;2023-04-03T02:26:02;8.77;;;3.90;;
17648;SDS011;8943;51.110;-4.158;2023-04-03T02:28:32;7.03;;;3.20;;
17648;SDS011;8943;51.110;-4.158;2023-04-03T02:31:07;5.63;;;2.57;;
17648;SDS011;8943;51.110;-4.158;2023-04-03T02:33:39;4.67;;;2.83;;
17648;SDS011;8943;51.110;-4.158;2023-04-03T02:36:21;9.03;;;2.93;;
17648;SDS011;8943;51.110;-4.158;2023-04-03T02:39:25;7.40;;;2.50;;
17648;SDS011;8943;51.110;-4.158;2023-04-03T02:42:15;8.33;;;2.90;;
17648;SDS011;8943;51.110;-4.158;2023-04-03T02:45:16;8.27;;;2.70;;
17648;SDS011;8943;51.110;-4.158;2023-04-03T03:13:03;4.87;;;2.73;;
17648;SDS011;8943;51.110;-4.158;2023-04-03T03:16:03;9.03;;;2.60;;
17648;SDS011;8943;51.110;-4.158;2023-04-03T03:18:48;6.50;;;2.53;;
17648;SDS011;8943;51.110;-4.158;2023-04-03T03:22:04;4.50;;;2.37;;
17648;SDS011;8943;51.110;-4.158;2023-04-03T03:24:39;4.80;;;2.37;;
17648;SDS011;8943;51.110;-4.158;2023-04-03T03:31:29;5.40;;;2.20;;
17648;SDS011;8943;51.110;-4.158;2023-04-03T03:34:36;6.30;;;2.03;;
17648;SDS011;8943;51.110;-4.158;2023-04-03T03:37:43;8.10;;;2.20;;
17648;SDS011;8943;51.110;-4.158;2023-04-03T03:40:47;4.40;;;2.27;;
17648;SDS011;8943;51.110;-4.158;2023-04-03T03:43:21;4.87;;;2.03;;
17648;SDS011;8943;51.110;-4.158;2023-04-03T03:46:09;5.30;;;2.10;;
17648;SDS011;8943;51.110;-4.158;2023-04-03T03:48:49;6.37;;;2.70;;
17648;SDS011;8943;51.110;-4.158;2023-04-03T03:51:18;6.63;;;2.00;;
17648;SDS011;8943;51.110;-4.158;2023-04-03T03:53:48;5.40;;;2.40;;
17648;SDS011;8943;51.110;-4.158;2023-04-03T03:56:21;3.53;;;2.10;;
17648;SDS011;8943;51.110;-4.158;2023-04-03T03:58:54;8.20;;;2.40;;
17648;SDS011;8943;51.110;-4.158;2023-04-03T04:01:24;8.40;;;1.90;;
17648;SDS011;8943;51.110;-4.158;2023-04-03T04:03:52;6.67;;;2.17;;
17648;SDS011;8943;51.110;-4.158;2023-04-03T04:06:27;3.70;;;2.10;;
17648;SDS011;8943;51.110;-4.158;2023-04-03T04:08:57;6.47;;;2.40;;
17648;SDS011;8943;51.110;-4.158;2023-04-03T04:11:31;4.70;;;2.53;;
17648;SDS011;8943;51.110;-4.158;2023-04-03T04:14:02;7.60;;;2.80;;
17648;SDS011;8943;51.110;-4.158;2023-04-03T04:16:32;6.50;;;2.47;;
17648;SDS011;8943;51.110;-4.158;2023-04-03T04:19:02;6.13;;;2.70;;
17648;SDS011;8943;51.110;-4.158;2023-04-03T04:21:33;8.10;;;2.43;;
17648;SDS011;8943;51.110;-4.158;2023-04-03T04:24:02;6.13;;;2.47;;
17648;SDS011;8943;51.110;-4.158;2023-04-03T04:26:40;4.40;;;2.63;;
17648;SDS011;8943;51.110;-4.158;2023-04-03T04:29:15;4.07;;;2.10;;
17648;SDS011;8943;51.110;-4.158;2023-04-03T04:31:45;3.73;;;2.43;;
17648;SDS011;8943;51.110;-4.158;2023-04-03T04:34:13;5.30;;;2.10;;
17648;SDS011;8943;51.110;-4.158;2023-04-03T04:36:43;4.73;;;2.13;;
17648;SDS011;8943;51.110;-4.158;2023-04-03T04:39:13;5.80;;;2.40;;
17648;SDS011;8943;51.110;-4.158;2023-04-03T04:41:45;5.90;;;2.90;;
17648;SDS011;8943;51.110;-4.158;2023-04-03T04:48:00;6.93;;;2.53;;
17648;SDS011;8943;51.110;-4.158;2023-04-03T04:50:36;8.90;;;3.10;;
17648;SDS011;8943;51.110;-4.158;2023-04-03T04:53:32;6.47;;;3.03;;
17648;SDS011;8943;51.110;-4.158;2023-04-03T04:56:14;7.43;;;2.87;;
17648;SDS011;8943;51.110;-4.158;2023-04-03T04:58:47;6.97;;;2.80;;
17648;SDS011;8943;51.110;-4.158;2023-04-03T05:01:18;7.97;;;3.30;;
17648;SDS011;8943;51.110;-4.158;2023-04-03T05:04:15;11.33;;;3.73;;
17648;SDS011;8943;51.110;-4.158;2023-04-03T05:07:00;5.23;;;3.20;;
17648;SDS011;8943;51.110;-4.158;2023-04-03T05:09:29;9.13;;;3.13;;
17648;SDS011;8943;51.110;-4.158;2023-04-03T05:12:29;5.03;;;3.30;;
17648;SDS011;8943;51.110;-4.158;2023-04-03T05:15:23;11.07;;;4.40;;
17648;SDS011;8943;51.110;-4.158;2023-04-03T05:18:09;12.23;;;3.63;;
17648;SDS011;8943;51.110;-4.158;2023-04-03T05:21:11;9.93;;;3.37;;
17648;SDS011;8943;51.110;-4.158;2023-04-03T05:24:10;7.63;;;3.10;;
17648;SDS011;8943;51.110;-4.158;2023-04-03T05:26:50;10.43;;;3.63;;
17648;SDS011;8943;51.110;-4.158;2023-04-03T05:29:35;7.23;;;3.57;;
17648;SDS011;8943;51.110;-4.158;2023-04-03T05:32:24;8.57;;;3.40;;
17648;SDS011;8943;51.110;-4.158;2023-04-03T05:34:55;8.70;;;3.93;;
17648;SDS011;8943;51.110;-4.158;2023-04-03T05:37:34;10.03;;;4.30;;
17648;SDS011;8943;51.110;-4.158;2023-04-03T05:40:26;7.10;;;3.40;;
17648;SDS011;8943;51.110;-4.158;2023-04-03T05:43:22;11.07;;;4.20;;
17648;SDS011;8943;51.110;-4.158;2023-04-03T05:46:08;6.43;;;3.33;;
17648;SDS011;8943;51.110;-4.158;2023-04-03T05:48:42;12.27;;;3.73;;
17648;SDS011;8943;51.110;-4.158;2023-04-03T05:51:13;9.80;;;3.83;;
17648;SDS011;8943;51.110;-4.158;2023-04-03T05:53:47;15.93;;;3.67;;
17648;SDS011;8943;51.110;-4.158;2023-04-03T05:56:20;9.97;;;3.57;;
17648;SDS011;8943;51.110;-4.158;2023-04-03T05:58:51;7.40;;;3.83;;
17648;SDS011;8943;51.110;-4.158;2023-04-03T06:01:20;7.50;;;3.47;;
17648;SDS011;8943;51.110;-4.158;2023-04-03T06:03:53;7.27;;;3.67;;
17648;SDS011;8943;51.110;-4.158;2023-04-03T06:06:25;9.37;;;3.53;;
17648;SDS011;8943;51.110;-4.158;2023-04-03T06:08:55;8.77;;;3.40;;
17648;SDS011;8943;51.110;-4.158;2023-04-03T06:11:23;9.87;;;3.10;;
17648;SDS011;8943;51.110;-4.158;2023-04-03T06:13:52;13.47;;;3.77;;
17648;SDS011;8943;51.110;-4.158;2023-04-03T06:16:21;18.23;;;3.70;;
17648;SDS011;8943;51.110;-4.158;2023-04-03T06:18:49;9.57;;;3.50;;
17648;SDS011;8943;51.110;-4.158;2023-04-03T06:21:18;11.57;;;3.70;;
17648;SDS011;8943;51.110;-4.158;2023-04-03T06:23:47;11.50;;;3.53;;
17648;SDS011;8943;51.110;-4.158;2023-04-03T06:26:18;8.93;;;3.00;;
17648;SDS011;8943;51.110;-4.158;2023-04-03T06:28:48;9.83;;;3.50;;
17648;SDS011;8943;51.110;-4.158;2023-04-03T06:31:16;9.73;;;3.60;;
17648;SDS011;8943;51.110;-4.158;2023-04-03T06:33:46;7.23;;;3.13;;
17648;SDS011;8943;51.110;-4.158;2023-04-03T06:36:32;11.03;;;2.80;;
17648;SDS011;8943;51.110;-4.158;2023-04-03T06:39:04;10.20;;;2.97;;
17648;SDS011;8943;51.110;-4.158;2023-04-03T06:41:35;9.90;;;3.37;;
17648;SDS011;8943;51.110;-4.158;2023-04-03T06:44:04;8.50;;;3.20;;
17648;SDS011;8943;51.110;-4.158;2023-04-03T06:46:33;8.83;;;3.27;;
17648;SDS011;8943;51.110;-4.158;2023-04-03T06:49:02;11.23;;;3.60;;
17648;SDS011;8943;51.110;-4.158;2023-04-03T06:51:35;13.17;;;3.00;;
17648;SDS011;8943;51.110;-4.158;2023-04-03T06:54:08;13.17;;;3.30;;
17648;SDS011;8943;51.110;-4.158;2023-04-03T06:56:44;6.60;;;2.73;;
17648;SDS011;8943;51.110;-4.158;2023-04-03T06:59:14;12.77;;;3.67;;
17648;SDS011;8943;51.110;-4.158;2023-04-03T07:01:44;5.10;;;2.50;;
17648;SDS011;8943;51.110;-4.158;2023-04-03T07:04:14;10.83;;;3.10;;
17648;SDS011;8943;51.110;-4.158;2023-04-03T07:06:45;6.30;;;2.73;;
17648;SDS011;8943;51.110;-4.158;2023-04-03T07:09:15;10.83;;;3.30;;
17648;SDS011;8943;51.110;-4.158;2023-04-03T07:11:48;7.07;;;3.07;;
17648;SDS011;8943;51.110;-4.158;2023-04-03T07:14:17;7.80;;;2.90;;
17648;SDS011;8943;51.110;-4.158;2023-04-03T07:16:48;7.90;;;2.63;;
17648;SDS011;8943;51.110;-4.158;2023-04-03T07:19:27;10.83;;;3.40;;
17648;SDS011;8943;51.110;-4.158;2023-04-03T07:21:57;6.50;;;2.60;;
17648;SDS011;8943;51.110;-4.158;2023-04-03T07:24:33;7.97;;;2.53;;
17648;SDS011;8943;51.110;-4.158;2023-04-03T07:29:55;9.17;;;3.13;;
17648;SDS011;8943;51.110;-4.158;2023-04-03T07:32:39;8.67;;;3.33;;
17648;SDS011;8943;51.110;-4.158;2023-04-03T07:35:22;10.73;;;3.13;;
17648;SDS011;8943;51.110;-4.158;2023-04-03T07:37:59;4.93;;;2.93;;
17648;SDS011;8943;51.110;-4.158;2023-04-03T07:40:32;8.93;;;3.03;;
17648;SDS011;8943;51.110;-4.158;2023-04-03T07:43:06;9.33;;;3.37;;
17648;SDS011;8943;51.110;-4.158;2023-04-03T07:45:37;12.40;;;3.60;;
17648;SDS011;8943;51.110;-4.158;2023-04-03T07:48:23;10.00;;;2.80;;
17648;SDS011;8943;51.110;-4.158;2023-04-03T07:50:58;9.60;;;3.10;;
17648;SDS011;8943;51.110;-4.158;2023-04-03T07:53:38;8.00;;;3.10;;
17648;SDS011;8943;51.110;-4.158;2023-04-03T07:56:20;7.30;;;2.83;;
17648;SDS011;8943;51.110;-4.158;2023-04-03T08:02:13;9.00;;;2.70;;
17648;SDS011;8943;51.110;-4.158;2023-04-03T08:13:19;7.43;;;3.10;;
17648;SDS011;8943;51.110;-4.158;2023-04-03T08:15:47;5.67;;;2.60;;
17648;SDS011;8943;51.110;-4.158;2023-04-03T08:18:17;8.77;;;3.20;;
17648;SDS011;8943;51.110;-4.158;2023-04-03T08:20:48;8.70;;;3.20;;
17648;SDS011;8943;51.110;-4.158;2023-04-03T08:23:16;7.87;;;2.73;;
17648;SDS011;8943;51.110;-4.158;2023-04-03T08:25:46;10.37;;;2.90;;
17648;SDS011;8943;51.110;-4.158;2023-04-03T08:28:15;8.03;;;3.03;;
17648;SDS011;8943;51.110;-4.158;2023-04-03T08:30:43;7.70;;;2.80;;
17648;SDS011;8943;51.110;-4.158;2023-04-03T08:33:12;8.87;;;2.93;;
17648;SDS011;8943;51.110;-4.158;2023-04-03T08:35:43;8.63;;;3.37;;
17648;SDS011;8943;51.110;-4.158;2023-04-03T08:38:12;8.10;;;3.30;;
17648;SDS011;8943;51.110;-4.158;2023-04-03T08:40:41;10.90;;;3.20;;
17648;SDS011;8943;51.110;-4.158;2023-04-03T08:43:19;11.23;;;2.97;;
17648;SDS011;8943;51.110;-4.158;2023-04-03T08:45:59;7.93;;;3.70;;
17648;SDS011;8943;51.110;-4.158;2023-04-03T08:48:38;10.20;;;3.20;;
17648;SDS011;8943;51.110;-4.158;2023-04-03T08:51:12;10.27;;;2.73;;
17648;SDS011;8943;51.110;-4.158;2023-04-03T08:53:43;5.30;;;3.00;;
17648;SDS011;8943;51.110;-4.158;2023-04-03T08:56:17;7.80;;;3.50;;
17648;SDS011;8943;51.110;-4.158;2023-04-03T08:58:47;9.60;;;3.43;;
17648;SDS011;8943;51.110;-4.158;2023-04-03T09:01:19;9.40;;;2.93;;
17648;SDS011;8943;51.110;-4.158;2023-04-03T09:03:52;8.90;;;3.57;;
17648;SDS011;8943;51.110;-4.158;2023-04-03T09:06:25;6.10;;;3.53;;
17648;SDS011;8943;51.110;-4.158;2023-04-03T09:09:02;7.23;;;3.20;;
17648;SDS011;8943;51.110;-4.158;2023-04-03T09:11:42;8.00;;;3.20;;
17648;SDS011;8943;51.110;-4.158;2023-04-03T09:14:22;8.83;;;3.43;;
17648;SDS011;8943;51.110;-4.158;2023-04-03T09:16:54;6.40;;;3.23;;
17648;SDS011;8943;51.110;-4.158;2023-04-03T09:19:31;10.97;;;3.13;;
17648;SDS011;8943;51.110;-4.158;2023-04-03T09:22:11;9.07;;;3.30;;
17648;SDS011;8943;51.110;-4.158;2023-04-03T09:24:44;11.20;;;3.67;;
17648;SDS011;8943;51.110;-4.158;2023-04-03T09:27:14;6.67;;;3.10;;
17648;SDS011;8943;51.110;-4.158;2023-04-03T09:29:43;9.17;;;2.90;;
17648;SDS011;8943;51.110;-4.158;2023-04-03T09:32:19;9.40;;;3.27;;
17648;SDS011;8943;51.110;-4.158;2023-04-03T09:34:52;14.37;;;3.43;;
17648;SDS011;8943;51.110;-4.158;2023-04-03T09:37:36;5.40;;;3.07;;
17648;SDS011;8943;51.110;-4.158;2023-04-03T09:40:27;9.73;;;2.90;;
17648;SDS011;8943;51.110;-4.158;2023-04-03T09:42:58;5.90;;;3.03;;
17648;SDS011;8943;51.110;-4.158;2023-04-03T09:45:28;8.57;;;3.13;;
17648;SDS011;8943;51.110;-4.158;2023-04-03T09:48:05;7.20;;;2.77;;
17648;SDS011;8943;51.110;-4.158;2023-04-03T09:50:52;7.70;;;2.67;;
17648;SDS011;8943;51.110;-4.158;2023-04-03T09:53:40;9.00;;;2.97;;
17648;SDS011;8943;51.110;-4.158;2023-04-03T09:56:18;9.23;;;2.70;;
17648;SDS011;8943;51.110;-4.158;2023-04-03T09:58:48;6.70;;;2.50;;
17648;SDS011;8943;51.110;-4.158;2023-04-03T10:01:22;6.07;;;2.57;;
17648;SDS011;8943;51.110;-4.158;2023-04-03T10:04:02;8.07;;;2.63;;
17648;SDS011;8943;51.110;-4.158;2023-04-03T10:06:34;8.03;;;2.30;;
17648;SDS011;8943;51.110;-4.158;2023-04-03T10:09:12;5.37;;;2.00;;
17648;SDS011;8943;51.110;-4.158;2023-04-03T10:11:59;5.23;;;1.90;;
17648;SDS011;8943;51.110;-4.158;2023-04-03T10:14:31;5.90;;;2.30;;
17648;SDS011;8943;51.110;-4.158;2023-04-03T10:17:02;11.67;;;2.00;;
17648;SDS011;8943;51.110;-4.158;2023-04-03T10:19:41;5.13;;;2.20;;
17648;SDS011;8943;51.110;-4.158;2023-04-03T10:22:15;6.70;;;2.10;;
17648;SDS011;8943;51.110;-4.158;2023-04-03T10:24:54;12.13;;;2.30;;
17648;SDS011;8943;51.110;-4.158;2023-04-03T10:27:32;5.67;;;2.00;;
17648;SDS011;8943;51.110;-4.158;2023-04-03T10:30:17;4.80;;;2.20;;
17648;SDS011;8943;51.110;-4.158;2023-04-03T10:32:55;8.00;;;1.80;;
17648;SDS011;8943;51.110;-4.158;2023-04-03T10:35:36;7.83;;;2.10;;
17648;SDS011;8943;51.110;-4.158;2023-04-03T10:38:12;7.70;;;2.03;;
17648;SDS011;8943;51.110;-4.158;2023-04-03T10:40:52;6.33;;;1.90;;
17648;SDS011;8943;51.110;-4.158;2023-04-03T10:43:29;6.93;;;2.20;;
17648;SDS011;8943;51.110;-4.158;2023-04-03T10:46:04;7.13;;;1.73;;
17648;SDS011;8943;51.110;-4.158;2023-04-03T10:48:44;4.63;;;1.97;;
17648;SDS011;8943;51.110;-4.158;2023-04-03T10:51:23;11.53;;;2.27;;
17648;SDS011;8943;51.110;-4.158;2023-04-03T10:53:56;12.53;;;2.40;;
17648;SDS011;8943;51.110;-4.158;2023-04-03T10:56:37;4.33;;;1.60;;
17648;SDS011;8943;51.110;-4.158;2023-04-03T10:59:13;6.77;;;1.80;;
17648;SDS011;8943;51.110;-4.158;2023-04-03T11:02:04;3.17;;;1.13;;
17648;SDS011;8943;51.110;-4.158;2023-04-03T11:04:36;5.57;;;1.60;;
17648;SDS011;8943;51.110;-4.158;2023-04-03T11:07:11;3.30;;;1.30;;
17648;SDS011;8943;51.110;-4.158;2023-04-03T11:10:20;7.70;;;1.60;;
17648;SDS011;8943;51.110;-4.158;2023-04-03T11:12:56;5.27;;;1.63;;
17648;SDS011;8943;51.110;-4.158;2023-04-03T11:15:30;3.77;;;1.30;;
17648;SDS011;8943;51.110;-4.158;2023-04-03T11:18:00;5.47;;;1.57;;
17648;SDS011;8943;51.110;-4.158;2023-04-03T11:20:33;4.57;;;1.67;;
17648;SDS011;8943;51.110;-4.158;2023-04-03T11:23:05;3.73;;;1.20;;
17648;SDS011;8943;51.110;-4.158;2023-04-03T11:25:43;2.20;;;1.13;;
17648;SDS011;8943;51.110;-4.158;2023-04-03T11:28:22;3.03;;;1.40;;
17648;SDS011;8943;51.110;-4.158;2023-04-03T11:30:52;2.60;;;1.50;;
17648;SDS011;8943;51.110;-4.158;2023-04-03T11:33:37;2.67;;;1.40;;
17648;SDS011;8943;51.110;-4.158;2023-04-03T11:36:17;5.53;;;1.40;;
17648;SDS011;8943;51.110;-4.158;2023-04-03T11:39:00;5.63;;;1.40;;
17648;SDS011;8943;51.110;-4.158;2023-04-03T11:41:35;7.07;;;1.70;;
17648;SDS011;8943;51.110;-4.158;2023-04-03T11:44:12;5.00;;;1.80;;
17648;SDS011;8943;51.110;-4.158;2023-04-03T11:46:57;6.30;;;1.83;;
17648;SDS011;8943;51.110;-4.158;2023-04-03T11:49:54;5.90;;;1.90;;
17648;SDS011;8943;51.110;-4.158;2023-04-03T11:55:42;5.73;;;2.10;;
17648;SDS011;8943;51.110;-4.158;2023-04-03T11:58:23;6.43;;;2.10;;
17648;SDS011;8943;51.110;-4.158;2023-04-03T12:07:45;8.13;;;1.80;;
17648;SDS011;8943;51.110;-4.158;2023-04-03T12:11:22;5.13;;;1.77;;
17648;SDS011;8943;51.110;-4.158;2023-04-03T12:14:03;5.50;;;1.70;;
17648;SDS011;8943;51.110;-4.158;2023-04-03T12:16:43;4.53;;;1.63;;
17648;SDS011;8943;51.110;-4.158;2023-04-03T12:19:30;3.73;;;1.50;;
17648;SDS011;8943;51.110;-4.158;2023-04-03T12:22:05;4.07;;;1.80;;
17648;SDS011;8943;51.110;-4.158;2023-04-03T12:24:41;6.53;;;1.73;;
17648;SDS011;8943;51.110;-4.158;2023-04-03T12:30:15;4.30;;;1.53;;
17648;SDS011;8943;51.110;-4.158;2023-04-03T12:32:55;5.13;;;1.70;;
17648;SDS011;8943;51.110;-4.158;2023-04-03T12:35:43;3.20;;;1.60;;
17648;SDS011;8943;51.110;-4.158;2023-04-03T12:38:33;3.50;;;1.57;;
17648;SDS011;8943;51.110;-4.158;2023-04-03T12:41:21;5.97;;;1.97;;
17648;SDS011;8943;51.110;-4.158;2023-04-03T12:44:00;4.03;;;1.53;;
17648;SDS011;8943;51.110;-4.158;2023-04-03T12:46:42;8.70;;;1.90;;
17648;SDS011;8943;51.110;-4.158;2023-04-03T12:49:18;2.60;;;1.43;;
17648;SDS011;8943;51.110;-4.158;2023-04-03T12:51:58;7.73;;;2.10;;
17648;SDS011;8943;51.110;-4.158;2023-04-03T12:54:29;6.40;;;1.63;;
17648;SDS011;8943;51.110;-4.158;2023-04-03T12:57:09;5.93;;;1.10;;
17648;SDS011;8943;51.110;-4.158;2023-04-03T12:59:38;4.20;;;1.53;;
17648;SDS011;8943;51.110;-4.158;2023-04-03T13:02:13;5.27;;;1.50;;
17648;SDS011;8943;51.110;-4.158;2023-04-03T13:04:56;5.80;;;1.77;;
17648;SDS011;8943;51.110;-4.158;2023-04-03T13:07:27;6.83;;;1.70;;
17648;SDS011;8943;51.110;-4.158;2023-04-03T13:10:09;4.63;;;1.60;;
17648;SDS011;8943;51.110;-4.158;2023-04-03T13:12:47;3.87;;;1.37;;
17648;SDS011;8943;51.110;-4.158;2023-04-03T13:15:18;7.27;;;2.07;;
17648;SDS011;8943;51.110;-4.158;2023-04-03T13:17:49;11.50;;;1.57;;
17648;SDS011;8943;51.110;-4.158;2023-04-03T13:20:22;7.83;;;1.80;;
17648;SDS011;8943;51.110;-4.158;2023-04-03T13:22:57;10.03;;;1.80;;
17648;SDS011;8943;51.110;-4.158;2023-04-03T13:25:28;4.53;;;1.40;;
17648;SDS011;8943;51.110;-4.158;2023-04-03T13:27:59;6.47;;;1.87;;
17648;SDS011;8943;51.110;-4.158;2023-04-03T13:30:39;6.93;;;1.93;;
17648;SDS011;8943;51.110;-4.158;2023-04-03T13:33:19;7.03;;;2.03;;
17648;SDS011;8943;51.110;-4.158;2023-04-03T13:35:55;8.70;;;2.47;;
17648;SDS011;8943;51.110;-4.158;2023-04-03T13:38:28;4.77;;;1.93;;
17648;SDS011;8943;51.110;-4.158;2023-04-03T13:41:01;4.57;;;2.20;;
17648;SDS011;8943;51.110;-4.158;2023-04-03T13:43:33;7.13;;;2.03;;
17648;SDS011;8943;51.110;-4.158;2023-04-03T13:46:05;6.57;;;2.20;;
17648;SDS011;8943;51.110;-4.158;2023-04-03T13:48:51;5.97;;;2.10;;
17648;SDS011;8943;51.110;-4.158;2023-04-03T13:51:23;5.63;;;2.27;;
17648;SDS011;8943;51.110;-4.158;2023-04-03T13:53:55;7.70;;;2.30;;
17648;SDS011;8943;51.110;-4.158;2023-04-03T13:56:26;5.67;;;2.20;;
17648;SDS011;8943;51.110;-4.158;2023-04-03T13:59:02;5.67;;;2.20;;
17648;SDS011;8943;51.110;-4.158;2023-04-03T14:01:36;5.23;;;2.07;;
17648;SDS011;8943;51.110;-4.158;2023-04-03T14:04:14;5.47;;;2.27;;
17648;SDS011;8943;51.110;-4.158;2023-04-03T14:06:47;4.53;;;2.00;;
17648;SDS011;8943;51.110;-4.158;2023-04-03T14:09:16;4.03;;;2.03;;
17648;SDS011;8943;51.110;-4.158;2023-04-03T14:11:46;5.03;;;2.47;;
17648;SDS011;8943;51.110;-4.158;2023-04-03T14:14:17;4.13;;;2.37;;
17648;SDS011;8943;51.110;-4.158;2023-04-03T14:16:50;9.83;;;2.53;;
17648;SDS011;8943;51.110;-4.158;2023-04-03T14:19:22;4.90;;;2.27;;
17648;SDS011;8943;51.110;-4.158;2023-04-03T14:21:54;4.77;;;2.10;;
17648;SDS011;8943;51.110;-4.158;2023-04-03T14:24:23;4.40;;;2.10;;
17648;SDS011;8943;51.110;-4.158;2023-04-03T14:26:52;8.43;;;2.30;;
17648;SDS011;8943;51.110;-4.158;2023-04-03T14:29:23;3.53;;;1.98;;
17648;SDS011;8943;51.110;-4.158;2023-04-03T14:31:52;4.50;;;2.00;;
17648;SDS011;8943;51.110;-4.158;2023-04-03T14:34:38;6.97;;;2.35;;
17648;SDS011;8943;51.110;-4.158;2023-04-03T14:37:10;4.38;;;2.25;;
17648;SDS011;8943;51.110;-4.158;2023-04-03T14:39:40;4.63;;;2.13;;
17648;SDS011;8943;51.110;-4.158;2023-04-03T14:42:11;6.50;;;2.50;;
17648;SDS011;8943;51.110;-4.158;2023-04-03T14:44:58;5.53;;;2.42;;
17648;SDS011;8943;51.110;-4.158;2023-04-03T14:47:28;6.22;;;2.00;;
17648;SDS011;8943;51.110;-4.158;2023-04-03T14:50:13;6.78;;;2.45;;
17648;SDS011;8943;51.110;-4.158;2023-04-03T14:52:53;5.65;;;2.17;;
17648;SDS011;8943;51.110;-4.158;2023-04-03T14:55:45;6.63;;;2.13;;
17648;SDS011;8943;51.110;-4.158;2023-04-03T14:58:20;3.10;;;1.77;;
17648;SDS011;8943;51.110;-4.158;2023-04-03T15:01:21;5.30;;;1.98;;
17648;SDS011;8943;51.110;-4.158;2023-04-03T15:03:50;6.07;;;2.30;;
17648;SDS011;8943;51.110;-4.158;2023-04-03T15:06:26;7.68;;;2.63;;
17648;SDS011;8943;51.110;-4.158;2023-04-03T15:09:09;4.97;;;2.25;;
17648;SDS011;8943;51.110;-4.158;2023-04-03T15:11:48;5.95;;;2.60;;
17648;SDS011;8943;51.110;-4.158;2023-04-03T15:14:45;6.07;;;2.10;;
17648;SDS011;8943;51.110;-4.158;2023-04-03T15:17:27;7.65;;;2.53;;
17648;SDS011;8943;51.110;-4.158;2023-04-03T15:19:55;4.45;;;1.90;;
17648;SDS011;8943;51.110;-4.158;2023-04-03T15:22:27;8.20;;;2.28;;
17648;SDS011;8943;51.110;-4.158;2023-04-03T15:24:59;3.67;;;2.13;;
17648;SDS011;8943;51.110;-4.158;2023-04-03T15:27:30;6.35;;;2.50;;
17648;SDS011;8943;51.110;-4.158;2023-04-03T15:29:59;5.75;;;2.65;;
17648;SDS011;8943;51.110;-4.158;2023-04-03T15:32:31;6.55;;;2.55;;
17648;SDS011;8943;51.110;-4.158;2023-04-03T15:35:13;6.13;;;2.72;;
17648;SDS011;8943;51.110;-4.158;2023-04-03T15:37:41;3.28;;;2.25;;
17648;SDS011;8943;51.110;-4.158;2023-04-03T15:40:12;5.75;;;2.00;;
17648;SDS011;8943;51.110;-4.158;2023-04-03T15:42:47;6.35;;;2.40;;
17648;SDS011;8943;51.110;-4.158;2023-04-03T15:45:17;5.53;;;2.75;;
17648;SDS011;8943;51.110;-4.158;2023-04-03T15:47:47;4.22;;;2.40;;
17648;SDS011;8943;51.110;-4.158;2023-04-03T15:50:17;7.65;;;2.90;;
17648;SDS011;8943;51.110;-4.158;2023-04-03T15:52:46;5.22;;;2.50;;
17648;SDS011;8943;51.110;-4.158;2023-04-03T15:55:20;7.47;;;2.42;;
17648;SDS011;8943;51.110;-4.158;2023-04-03T15:57:49;7.03;;;2.55;;
17648;SDS011;8943;51.110;-4.158;2023-04-03T16:00:18;4.07;;;2.33;;
17648;SDS011;8943;51.110;-4.158;2023-04-03T16:02:48;4.35;;;2.42;;
17648;SDS011;8943;51.110;-4.158;2023-04-03T16:05:19;4.80;;;3.08;;
17648;SDS011;8943;51.110;-4.158;2023-04-03T16:08:09;4.70;;;2.40;;
17648;SDS011;8943;51.110;-4.158;2023-04-03T16:10:40;5.30;;;2.83;;
17648;SDS011;8943;51.110;-4.158;2023-04-03T16:13:15;6.68;;;2.53;;
17648;SDS011;8943;51.110;-4.158;2023-04-03T16:15:44;6.80;;;2.83;;
17648;SDS011;8943;51.110;-4.158;2023-04-03T16:18:15;6.05;;;2.90;;
17648;SDS011;8943;51.110;-4.158;2023-04-03T16:20:45;8.55;;;3.17;;
17648;SDS011;8943;51.110;-4.158;2023-04-03T16:23:16;8.70;;;2.80;;
17648;SDS011;8943;51.110;-4.158;2023-04-03T16:25:47;5.33;;;2.93;;
17648;SDS011;8943;51.110;-4.158;2023-04-03T16:28:17;8.80;;;3.40;;
17648;SDS011;8943;51.110;-4.158;2023-04-03T16:30:52;5.97;;;4.00;;
17648;SDS011;8943;51.110;-4.158;2023-04-03T16:33:35;7.00;;;4.17;;
17648;SDS011;8943;51.110;-4.158;2023-04-03T16:36:12;6.13;;;2.60;;
17648;SDS011;8943;51.110;-4.158;2023-04-03T16:38:53;6.33;;;2.50;;
17648;SDS011;8943;51.110;-4.158;2023-04-03T16:42:02;5.93;;;2.70;;
17648;SDS011;8943;51.110;-4.158;2023-04-03T16:44:30;9.23;;;2.93;;
17648;SDS011;8943;51.110;-4.158;2023-04-03T16:47:14;7.57;;;3.20;;
17648;SDS011;8943;51.110;-4.158;2023-04-03T16:49:57;9.03;;;3.10;;
17648;SDS011;8943;51.110;-4.158;2023-04-03T16:52:31;4.87;;;3.13;;